Time;durP1;ratioP1;P1;durP2;ratioP2;P2;SDS_P1;SDS_P2;PMS_P1;PMS_P2;Temp;Humidity;BMP_temperature;BMP_pressure;BME280_temperature;BME280_humidity;BME280_pressure;Samples;Min_cycle;Max_cycle;Signal;HPM_P1;HPM_P2
2022/09/20 00:01:31;;;;;;;2.08;1.02;;;;;;;8.51;86.31;99013.78;1653653;85;20972;-86
2022/09/20 00:04:01;;;;;;;1.55;1.17;;;;;;;8.51;86.61;99012.94;1647759;87;20985;-88
2022/09/20 00:06:30;;;;;;;3.55;1.50;;;;;;;8.53;86.14;99011.17;1652882;87;21017;-89
2022/09/20 00:09:00;;;;;;;2.52;1.40;;;;;;;8.52;87.16;99009.03;1643435;85;21016;-91
2022/09/20 00:11:31;;;;;;;2.77;1.35;;;;;;;8.51;86.84;99011.19;1652570;85;20993;-88
2022/09/20 00:14:00;;;;;;;2.00;1.32;;;;;;;8.54;85.73;99007.72;1650948;87;21004;-88
2022/09/20 00:16:33;;;;;;;4.70;1.22;;;;;;;8.52;86.36;99012.92;1653477;85;21028;-91
2022/09/20 00:19:02;;;;;;;2.70;1.35;;;;;;;8.56;85.82;99007.25;1604072;88;20991;-90
2022/09/20 00:21:32;;;;;;;2.33;1.35;;;;;;;8.53;85.75;99005.98;1592054;88;21061;-90
2022/09/20 00:24:00;;;;;;;2.77;1.65;;;;;;;8.53;85.91;99002.98;1649946;87;21043;-90
2022/09/20 00:26:28;;;;;;;3.72;1.98;;;;;;;8.52;86.91;98998.67;1639387;86;20977;-90
2022/09/20 00:28:57;;;;;;;2.80;1.60;;;;;;;8.54;87.25;99003.83;1647255;86;20965;-89
2022/09/20 00:31:25;;;;;;;3.27;1.30;;;;;;;8.55;85.83;99002.52;1655523;87;21012;-90
2022/09/20 00:36:44;;;;;;;2.65;1.50;;;;;;;8.57;85.51;98995.98;1600426;88;20988;-89
2022/09/20 00:39:14;;;;;;;2.33;1.50;;;;;;;8.57;85.24;99001.16;1634853;88;20997;-89
2022/09/20 00:41:42;;;;;;;4.12;2.30;;;;;;;8.60;85.41;99000.27;1654493;86;21033;-87
2022/09/20 00:44:46;;;;;;;4.60;1.87;;;;;;;8.60;85.10;99002.87;1630128;87;21048;-91
2022/09/20 00:47:17;;;;;;;;;;;;;;;8.59;85.04;98998.55;1661537;86;21549;-90
2022/09/20 00:49:45;;;;;;;2.27;1.20;;;;;;;8.58;85.17;98994.27;1648804;86;20143;-89
2022/09/20 00:52:14;;;;;;;2.42;1.47;;;;;;;8.58;85.18;98997.70;1658990;86;21054;-88
2022/09/20 00:54:42;;;;;;;2.00;1.22;;;;;;;8.56;84.55;98995.13;1672888;86;21022;-88
2022/09/20 00:57:10;;;;;;;2.35;1.40;;;;;;;8.56;84.78;98996.43;1644396;85;21004;-87
2022/09/20 00:59:41;;;;;;;2.37;1.20;;;;;;;8.56;84.59;98992.99;1631360;87;20991;-89
2022/09/20 01:02:22;;;;;;;1.80;1.10;;;;;;;8.55;84.38;98986.96;1651196;86;21546;-89
2022/09/20 01:04:50;;;;;;;1.75;1.25;;;;;;;8.53;84.73;98985.27;1652050;86;21036;-87
2022/09/20 01:07:21;;;;;;;1.85;1.20;;;;;;;8.53;84.62;98989.15;1656521;86;21020;-89
2022/09/20 01:09:49;;;;;;;2.37;1.50;;;;;;;8.52;84.72;98985.71;1657817;86;20961;-89
2022/09/20 01:12:25;;;;;;;3.08;1.47;;;;;;;8.48;84.97;98981.47;1654836;86;21024;-90
2022/09/20 01:14:54;;;;;;;5.50;1.50;;;;;;;8.43;86.23;98980.69;1656629;86;21028;-87
2022/09/20 01:17:25;;;;;;;1.65;1.02;;;;;;;8.42;86.35;98980.29;1649181;86;20985;-88
2022/09/20 01:20:07;;;;;;;2.33;1.35;;;;;;;8.41;86.24;98977.27;1671011;85;21017;-88
2022/09/20 01:22:52;;;;;;;2.10;1.32;;;;;;;8.41;86.49;98981.58;1668381;86;20986;-90
2022/09/20 01:25:54;;;;;;;2.17;1.40;;;;;;;8.40;85.95;98977.29;1674015;86;21097;-91
2022/09/20 01:28:22;;;;;;;2.60;1.47;;;;;;;8.38;85.79;98971.28;1641148;85;21023;-90
2022/09/20 01:31:04;;;;;;;3.72;1.52;;;;;;;8.34;86.29;98970.48;1674718;86;20998;-90
2022/09/20 01:33:51;;;;;;;1.98;1.30;;;;;;;8.29;87.18;98970.98;1662103;86;21070;-91
2022/09/20 01:36:27;;;;;;;6.90;1.40;;;;;;;8.29;86.08;98968.40;1674027;86;20967;-90
2022/09/20 01:39:27;;;;;;;2.30;1.50;;;;;;;8.22;86.96;98969.41;1669769;85;20993;-86
2022/09/20 01:41:59;;;;;;;3.20;1.62;;;;;;;8.22;86.80;98968.95;1674332;86;21554;-91
2022/09/20 01:45:20;;;;;;;3.27;1.75;;;;;;;8.16;87.34;98965.19;1658348;86;21021;-90
2022/09/20 01:48:23;;;;;;;3.75;2.10;;;;;;;8.14;86.71;98971.68;1671389;86;21025;-89
2022/09/20 01:51:08;;;;;;;3.33;1.77;;;;;;;8.13;87.82;98964.77;1656320;86;20988;-90
2022/09/20 01:54:12;;;;;;;4.45;1.60;;;;;;;8.09;88.15;98965.70;1617117;87;21043;-89
2022/09/20 01:57:21;;;;;;;5.83;1.90;;;;;;;8.03;88.74;98970.99;1642575;87;21074;-90
2022/09/20 02:00:09;;;;;;;4.87;1.75;;;;;;;8.03;88.73;98967.56;1666248;85;21519;-88
2022/09/20 02:03:00;;;;;;;5.33;1.90;;;;;;;8.01;88.86;98962.84;1669694;86;21510;-89
2022/09/20 02:05:42;;;;;;;3.10;1.82;;;;;;;8.02;88.82;98971.89;1672607;86;21014;-90
2022/09/20 02:08:37;;;;;;;3.62;1.80;;;;;;;7.99;88.16;98973.67;1676873;86;21034;-86
2022/09/20 02:11:24;;;;;;;5.03;2.20;;;;;;;7.97;87.45;98969.36;1675763;85;21070;-89
2022/09/20 02:14:11;;;;;;;4.60;1.85;;;;;;;7.97;87.29;98962.89;1673407;85;21017;-90
2022/09/20 02:17:02;;;;;;;3.20;1.80;;;;;;;7.96;88.70;98965.52;1657126;86;21034;-89
2022/09/20 02:19:59;;;;;;;3.02;1.92;;;;;;;8.00;87.50;98967.18;1670755;86;21010;-89
2022/09/20 02:22:47;;;;;;;3.08;1.60;;;;;;;7.93;89.77;98965.56;1649684;86;20964;-91
2022/09/20 02:25:37;;;;;;;4.10;2.22;;;;;;;7.93;88.73;98970.29;1673219;85;20978;-90
2022/09/20 02:28:32;;;;;;;4.33;2.40;;;;;;;7.96;87.86;98984.94;1659689;86;21052;-87
2022/09/20 02:31:27;;;;;;;5.25;3.50;;;;;;;7.95;88.60;98980.17;1676290;86;20982;-89
2022/09/20 02:34:47;;;;;;;3.85;2.12;;;;;;;7.99;88.58;98974.52;1666103;86;20983;-90
2022/09/20 02:37:46;;;;;;;3.00;1.85;;;;;;;8.03;89.51;98983.94;1676862;85;21022;-89
2022/09/20 02:40:50;;;;;;;6.47;1.92;;;;;;;8.06;90.94;98978.73;1675151;85;20987;-91
2022/09/20 02:44:02;;;;;;;3.02;1.70;;;;;;;8.15;89.23;98977.70;1663286;86;21046;-90
2022/09/20 02:46:46;;;;;;;2.65;1.82;;;;;;;8.23;89.01;98978.87;1659657;85;21000;-86
2022/09/20 02:49:47;;;;;;;4.83;2.20;;;;;;;8.28;88.30;98977.06;1662185;85;21128;-87
2022/09/20 02:52:57;;;;;;;5.75;2.22;;;;;;;8.32;90.12;98983.90;1650863;85;20959;-86
2022/09/20 02:55:42;;;;;;;3.92;2.00;;;;;;;8.35;89.41;98985.13;1624436;88;21014;-87
2022/09/20 02:58:27;;;;;;;9.10;2.30;;;;;;;8.39;89.64;98982.05;1667440;85;21046;-89
2022/09/20 03:01:30;;;;;;;5.58;2.45;;;;;;;8.44;90.32;98984.16;1647257;85;21059;-90
2022/09/20 03:04:55;;;;;;;3.90;2.02;;;;;;;8.46;89.77;98989.71;1667374;86;20989;-89
2022/09/20 03:07:50;;;;;;;;;;;;;;;8.51;89.31;98993.05;1621004;87;21047;-89
2022/09/20 03:10:30;;;;;;;4.37;2.30;;;;;;;8.54;90.33;98990.88;1629295;87;20136;-91
2022/09/20 03:13:27;;;;;;;4.33;2.42;;;;;;;8.55;90.03;98990.85;1666398;86;21450;-91
2022/09/20 03:16:15;;;;;;;4.35;2.12;;;;;;;8.60;89.93;98988.61;1674980;84;21049;-87
2022/09/20 03:19:20;;;;;;;6.12;2.72;;;;;;;8.62;89.75;98986.39;1667838;85;21498;-89
2022/09/20 03:22:24;;;;;;;3.65;2.40;;;;;;;8.65;90.11;98984.18;1660182;86;20988;-90
2022/09/20 03:25:05;;;;;;;7.17;3.00;;;;;;;8.69;89.86;98983.23;1631941;86;21085;-89
2022/09/20 03:27:44;;;;;;;7.40;2.70;;;;;;;8.68;89.77;98978.50;1660755;85;21055;-88
2022/09/20 03:30:45;;;;;;;4.08;2.42;;;;;;;8.71;89.20;98975.86;1664653;86;21578;-87
2022/09/20 03:33:37;;;;;;;4.97;2.25;;;;;;;8.71;89.17;98974.57;1673520;85;21041;-89
2022/09/20 03:36:30;;;;;;;4.60;2.25;;;;;;;8.74;88.48;98986.16;1657534;86;21133;-86
2022/09/20 03:39:53;;;;;;;4.65;1.90;;;;;;;8.75;88.84;98987.00;1673769;86;21082;-90
2022/09/20 03:42:30;;;;;;;7.53;2.40;;;;;;;8.78;88.61;98990.00;1630748;86;21045;-88
2022/09/20 03:45:21;;;;;;;3.65;2.37;;;;;;;8.80;88.51;98996.00;1630252;86;21036;-87
2022/09/20 03:48:18;;;;;;;8.88;2.10;;;;;;;8.82;88.52;98996.83;1620324;87;21029;-86
2022/09/20 03:51:18;;;;;;;4.50;2.25;;;;;;;8.82;88.67;98995.53;1620287;88;21067;-88
2022/09/20 03:54:02;;;;;;;4.33;2.25;;;;;;;8.83;87.87;98998.07;1605136;88;21044;-88
2022/09/20 03:57:10;;;;;;;4.00;2.08;;;;;;;8.84;87.92;99004.98;1625701;87;21021;-88
2022/09/20 04:00:04;;;;;;;5.00;2.20;;;;;;;8.88;87.97;99013.56;1639597;86;21029;-89
2022/09/20 04:03:04;;;;;;;4.30;2.20;;;;;;;8.91;87.92;99009.17;1635546;86;21505;-88
2022/09/20 04:05:44;;;;;;;4.62;2.50;;;;;;;8.98;87.31;99010.34;1595715;88;21008;-89
2022/09/20 04:08:35;;;;;;;4.35;2.12;;;;;;;8.99;87.05;99013.33;1614486;88;21019;-88
2022/09/20 04:11:20;;;;;;;7.55;2.70;;;;;;;9.00;87.07;99008.13;1646904;87;21494;-85
2022/09/20 04:13:58;;;;;;;5.25;2.60;;;;;;;8.99;87.30;99010.29;1646077;86;21477;-89
2022/09/20 04:16:34;;;;;;;9.08;3.15;;;;;;;9.00;87.17;99018.50;1632700;87;21104;-90
2022/09/20 04:19:36;;;;;;;4.75;2.45;;;;;;;9.02;87.00;99020.61;1633587;87;20961;-90
2022/09/20 04:22:06;;;;;;;6.17;2.80;;;;;;;9.02;86.73;99023.66;1645097;87;21021;-88
2022/09/20 04:24:56;;;;;;;6.45;2.75;;;;;;;9.03;86.36;99029.24;1647579;86;20986;-89
2022/09/20 04:27:56;;;;;;;11.88;3.37;;;;;;;9.00;86.46;99018.95;1639847;87;20982;-88
2022/09/20 04:30:30;;;;;;;5.62;3.25;;;;;;;8.99;86.32;99023.70;1623717;87;21473;-87
2022/09/20 04:33:06;;;;;;;5.20;2.60;;;;;;;8.93;86.46;99022.08;1641857;87;20997;-91
2022/09/20 04:38:54;;;;;;;4.30;2.35;;;;;;;8.87;86.35;99024.80;1644517;87;20953;-90
2022/09/20 04:41:39;;;;;;;;;;;;;;;8.83;86.76;99024.45;1647371;86;21010;-89
2022/09/20 04:44:32;;;;;;;6.33;2.60;;;;;;;8.80;87.05;99028.41;1632062;88;20117;-88
2022/09/20 04:47:34;;;;;;;5.50;2.62;;;;;;;8.77;87.22;99031.89;1650524;87;21561;-89
2022/09/20 04:50:38;;;;;;;4.72;2.30;;;;;;;8.69;87.77;99026.84;1630952;86;21003;-89
2022/09/20 04:53:27;;;;;;;7.22;2.90;;;;;;;8.68;87.21;99027.75;1653056;87;21044;-91
2022/09/20 04:56:34;;;;;;;10.88;2.98;;;;;;;8.68;86.69;99034.67;1637120;88;21070;-88
2022/09/20 04:59:33;;;;;;;6.95;3.35;;;;;;;8.69;86.92;99031.18;1634875;88;21023;-87
2022/09/20 05:02:36;;;;;;;13.40;3.55;;;;;;;8.63;87.43;99032.59;1627167;88;21035;-89
2022/09/20 05:05:41;;;;;;;7.87;2.80;;;;;;;8.61;87.96;99031.31;1620281;88;21017;-90
2022/09/20 05:08:54;;;;;;;7.35;2.65;;;;;;;8.65;87.86;99029.08;1650275;85;21557;-89
2022/09/20 05:12:02;;;;;;;10.50;3.02;;;;;;;8.70;87.52;99030.31;1632803;88;21136;-88
2022/09/20 05:14:58;;;;;;;5.20;2.90;;;;;;;8.72;87.68;99028.09;1607328;88;21176;-89
2022/09/20 05:18:01;;;;;;;9.33;2.98;;;;;;;8.76;88.41;99031.50;1624496;88;21046;-92
2022/09/20 05:21:07;;;;;;;5.90;2.95;;;;;;;8.86;87.75;99034.32;1621376;88;21057;-89
2022/09/20 05:24:04;;;;;;;6.28;2.58;;;;;;;8.91;88.23;99036.81;1636323;88;21031;-89
2022/09/20 05:27:09;;;;;;;11.00;2.62;;;;;;;8.99;87.81;99039.27;1648618;85;21086;-89
2022/09/20 05:29:57;;;;;;;5.35;2.67;;;;;;;9.08;87.52;99039.09;1625806;86;21014;-90
2022/09/20 05:33:07;;;;;;;5.08;2.33;;;;;;;9.18;87.30;99034.13;1653919;87;22000;-85
2022/09/20 05:36:07;;;;;;;5.15;2.95;;;;;;;9.25;87.23;99027.94;1631583;87;21035;-88
2022/09/20 05:38:58;;;;;;;7.40;3.05;;;;;;;9.25;87.52;99025.77;1637338;88;21066;-90
2022/09/20 05:41:51;;;;;;;10.95;2.95;;;;;;;9.31;87.19;99029.52;1654281;85;21028;-86
2022/09/20 05:44:55;;;;;;;7.17;3.25;;;;;;;9.36;86.64;99023.36;1673693;86;21026;-89
2022/09/20 05:47:58;;;;;;;10.88;3.52;;;;;;;9.32;86.79;99021.72;1665819;84;21005;-91
2022/09/20 05:50:59;;;;;;;7.97;3.10;;;;;;;9.34;86.58;99035.52;1670928;84;20994;-89
2022/09/20 05:54:01;;;;;;;12.28;2.83;;;;;;;9.33;86.41;99032.52;1672517;84;21887;-89
2022/09/20 05:56:46;;;;;;;6.62;2.58;;;;;;;9.29;86.58;99032.59;1669138;86;20979;-91
2022/09/20 05:59:45;;;;;;;6.78;2.80;;;;;;;9.32;86.69;99035.98;1675829;84;21020;-86
2022/09/20 06:03:09;;;;;;;6.03;3.80;;;;;;;9.42;86.45;99039.25;1639093;85;21031;-87
2022/09/20 06:05:59;;;;;;;4.10;1.92;;;;;;;9.53;86.15;99033.84;1655589;85;21535;-88
2022/09/20 06:08:42;;;;;;;4.10;2.15;;;;;;;9.60;86.31;99045.78;1623789;88;21052;-87
2022/09/20 06:11:38;;;;;;;7.00;2.20;;;;;;;9.57;86.21;99043.27;1624792;87;21523;-90
2022/09/20 06:14:40;;;;;;;4.40;2.12;;;;;;;9.59;86.19;99049.28;1643354;86;20983;-89
2022/09/20 06:17:38;;;;;;;8.28;2.17;;;;;;;9.67;85.90;99052.98;1674758;84;21059;-84
2022/09/20 06:20:38;;;;;;;5.55;2.60;;;;;;;9.72;85.77;99051.99;1672039;84;21042;-89
2022/09/20 06:23:07;;;;;;;7.50;2.55;;;;;;;9.66;85.93;99046.09;1654610;85;21022;-86
2022/09/20 06:25:52;;;;;;;4.60;2.25;;;;;;;9.71;85.84;99052.89;1664619;86;21001;-86
2022/09/20 06:28:22;;;;;;;7.28;2.25;;;;;;;9.70;86.10;99056.81;1662118;86;21038;-85
2022/09/20 06:30:52;;;;;;;4.92;2.70;;;;;;;9.74;86.40;99050.22;1651051;86;20980;-84
2022/09/20 06:33:24;;;;;;;6.87;2.58;;;;;;;9.83;86.50;99045.70;1668544;86;21062;-86
2022/09/20 06:41:25;;;;;;;11.18;2.20;;;;;;;9.90;85.96;99044.23;1669589;85;20984;-82
2022/09/20 06:41:56;;;;;;;3.70;1.80;;;;;;;10.02;85.89;99046.98;1665437;86;21083;-87
2022/09/20 06:44:24;;;;;;;2.95;1.50;;;;;;;10.16;84.95;99043.61;1657882;86;21060;-84
2022/09/20 06:46:53;;;;;;;6.00;2.08;;;;;;;10.29;84.68;99051.13;1654333;85;21054;-83
2022/09/20 06:49:22;;;;;;;3.65;1.67;;;;;;;10.25;84.57;99041.70;1641043;86;21877;-84
2022/09/20 06:51:52;;;;;;;5.62;2.12;;;;;;;10.31;84.69;99041.58;1630698;87;21072;-86
2022/09/20 06:54:21;;;;;;;5.87;1.77;;;;;;;10.34;84.56;99044.96;1639731;86;21106;-88
2022/09/20 06:56:50;;;;;;;4.12;1.92;;;;;;;10.39;84.60;99039.64;1641181;86;21036;-85
2022/09/20 06:59:18;;;;;;;3.83;1.82;;;;;;;10.49;84.52;99041.11;1641871;87;20989;-88
2022/09/20 07:01:46;;;;;;;4.45;1.90;;;;;;;10.54;84.10;99050.08;1626514;86;21020;-84
2022/09/20 07:04:13;;;;;;;3.70;1.77;;;;;;;10.54;84.10;99040.98;1640982;86;21064;-87
2022/09/20 07:06:41;;;;;;;4.20;1.92;;;;;;;10.56;83.81;99043.09;1651133;85;20973;-84
2022/09/20 07:09:10;;;;;;;4.60;2.22;;;;;;;10.64;83.29;99042.44;1622693;86;21059;-84
2022/09/20 07:11:38;;;;;;;3.10;1.65;;;;;;;10.63;83.18;99050.31;1623410;88;21028;-84
2022/09/20 07:14:06;;;;;;;3.80;1.80;;;;;;;10.68;83.52;99044.52;1656008;85;21048;-84
2022/09/20 07:16:35;;;;;;;5.25;2.10;;;;;;;10.80;83.05;99053.75;1658135;85;21008;-83
2022/09/20 07:19:05;;;;;;;3.75;1.90;;;;;;;10.86;83.11;99050.56;1660598;85;21150;-82
2022/09/20 07:21:33;;;;;;;5.83;2.15;;;;;;;10.98;82.84;99044.13;1655131;85;21073;-85
2022/09/20 07:24:03;;;;;;;2.75;1.40;;;;;;;11.09;82.44;99046.00;1660731;85;21091;-83
2022/09/20 07:26:30;;;;;;;3.15;1.77;;;;;;;11.15;81.92;99049.73;1653862;85;20961;-84
2022/09/20 07:28:58;;;;;;;2.87;1.72;;;;;;;11.25;81.49;99050.78;1657541;86;21565;-84
2022/09/20 07:31:28;;;;;;;5.37;2.08;;;;;;;11.41;80.86;99055.94;1659255;85;21508;-83
2022/09/20 07:33:56;;;;;;;4.17;2.00;;;;;;;11.41;80.59;99062.91;1651730;85;21009;-83
2022/09/20 07:36:24;;;;;;;3.27;1.80;;;;;;;11.59;80.40;99063.66;1652770;85;21020;-84
2022/09/20 07:38:52;;;;;;;2.92;1.77;;;;;;;11.69;79.40;99047.31;1660344;85;21004;-86
2022/09/20 07:41:21;;;;;;;3.25;1.57;;;;;;;11.78;79.50;99053.98;1652045;86;20968;-85
2022/09/20 07:43:49;;;;;;;4.30;1.90;;;;;;;11.90;78.75;99053.66;1633977;86;21019;-87
2022/09/20 07:46:22;;;;;;;2.50;1.60;;;;;;;12.02;77.81;99058.48;1644930;86;20957;-88
2022/09/20 07:48:53;;;;;;;4.78;1.80;;;;;;;12.02;77.08;99045.45;1644096;86;21055;-82
2022/09/20 07:51:21;;;;;;;2.83;1.77;;;;;;;12.10;77.12;99045.22;1642047;86;21048;-83
2022/09/20 07:53:53;;;;;;;2.42;1.47;;;;;;;12.16;77.76;99052.84;1644215;86;21037;-85
2022/09/20 07:56:20;;;;;;;3.00;1.85;;;;;;;12.17;77.10;99049.77;1617491;87;21080;-81
2022/09/20 07:58:48;;;;;;;3.12;1.80;;;;;;;12.25;76.55;99046.00;1628144;86;21558;-87
2022/09/20 08:01:16;;;;;;;4.42;1.87;;;;;;;12.27;75.97;99050.71;1643951;86;21049;-87
2022/09/20 08:03:44;;;;;;;4.17;1.55;;;;;;;12.32;75.99;99057.94;1642326;86;21021;-86
2022/09/20 08:06:14;;;;;;;3.35;1.62;;;;;;;12.44;76.16;99055.38;1641587;86;20992;-83
2022/09/20 08:08:42;;;;;;;2.87;1.60;;;;;;;12.50;75.38;99048.66;1640009;87;20986;-83
2022/09/20 08:11:17;;;;;;;2.77;1.55;;;;;;;12.53;75.32;99044.66;1640294;86;21021;-82
2022/09/20 08:13:48;;;;;;;5.10;1.98;;;;;;;12.67;74.49;99042.88;1641685;86;21548;-84
2022/09/20 08:16:16;;;;;;;2.95;1.50;;;;;;;12.72;73.35;99049.23;1636830;86;21049;-82
2022/09/20 08:18:51;;;;;;;3.35;1.70;;;;;;;12.81;74.03;99051.53;1616164;87;21033;-82
2022/09/20 08:21:18;;;;;;;3.12;1.50;;;;;;;12.93;72.68;99041.97;1635859;86;21026;-86
2022/09/20 08:23:47;;;;;;;5.08;1.42;;;;;;;12.94;72.89;99054.09;1640605;86;21137;-84
2022/09/20 08:26:19;;;;;;;4.10;1.27;;;;;;;12.96;72.04;99048.83;1576746;89;21015;-82
2022/09/20 08:28:53;;;;;;;2.37;1.40;;;;;;;12.92;71.80;99058.52;1637240;86;21075;-82
2022/09/20 08:31:24;;;;;;;6.25;1.57;;;;;;;13.07;72.64;99054.95;1638678;87;21056;-80
2022/09/20 08:33:53;;;;;;;3.05;1.40;;;;;;;13.09;71.51;99050.52;1643190;85;21589;-84
2022/09/20 08:36:24;;;;;;;2.77;1.67;;;;;;;13.13;71.93;99043.02;1635776;86;21520;-85
2022/09/20 08:38:52;;;;;;;3.33;1.80;;;;;;;13.09;70.84;99051.83;1642853;87;21552;-87
2022/09/20 08:41:35;;;;;;;3.92;1.77;;;;;;;13.09;71.04;99042.70;1639395;86;21060;-80
2022/09/20 08:44:26;;;;;;;2.55;1.50;;;;;;;13.20;71.27;99052.30;1616674;86;21120;-85
2022/09/20 08:47:08;;;;;;;2.90;1.72;;;;;;;13.04;70.27;99040.27;1634653;86;21014;-80
2022/09/20 08:49:37;;;;;;;4.42;1.90;;;;;;;13.16;71.16;99052.48;1631649;86;21055;-81
2022/09/20 08:52:06;;;;;;;7.40;2.22;;;;;;;13.33;70.89;99030.56;1631581;86;21002;-79
2022/09/20 08:54:35;;;;;;;5.10;2.00;;;;;;;13.35;71.26;99032.66;1636127;86;21041;-83
2022/09/20 08:57:07;;;;;;;3.60;2.00;;;;;;;13.52;70.91;99042.45;1633371;86;21087;-81
2022/09/20 08:59:35;;;;;;;4.28;1.80;;;;;;;13.52;69.35;99044.61;1647755;85;22059;-80
2022/09/20 09:02:14;;;;;;;5.33;1.57;;;;;;;13.66;68.98;99048.46;1648792;86;20990;-86
2022/09/20 09:04:44;;;;;;;4.58;1.40;;;;;;;13.77;69.35;99048.03;1652818;85;21081;-81
2022/09/20 09:07:14;;;;;;;3.85;1.90;;;;;;;13.70;68.53;99046.13;1646490;85;21066;-79
2022/09/20 09:09:46;;;;;;;2.83;1.45;;;;;;;13.72;68.00;99037.77;1676654;82;21025;-78
2022/09/20 09:12:29;;;;;;;3.12;1.90;;;;;;;13.87;69.34;99039.80;1673476;84;21021;-83
2022/09/20 09:15:04;;;;;;;5.22;1.60;;;;;;;13.93;68.64;99036.09;1651333;85;21412;-81
2022/09/20 09:17:34;;;;;;;9.23;2.50;;;;;;;13.88;68.72;99034.10;1668615;84;21368;-78
2022/09/20 09:20:20;;;;;;;3.87;1.17;;;;;;;13.73;68.10;99042.95;1673836;85;21025;-79
2022/09/20 09:23:05;;;;;;;3.60;1.90;;;;;;;13.80;68.70;99034.40;1668516;85;21049;-85
2022/09/20 09:25:38;;;;;;;3.45;1.45;;;;;;;13.75;69.05;99030.26;1671996;84;21092;-81
2022/09/20 09:28:11;;;;;;;4.35;1.45;;;;;;;13.69;68.84;99030.06;1669890;85;21029;-80
2022/09/20 09:30:45;;;;;;;3.27;1.57;;;;;;;13.70;68.46;99031.75;1679352;84;21020;-80
2022/09/20 09:33:32;;;;;;;3.70;1.55;;;;;;;13.77;69.21;99031.05;1660754;85;20999;-81
2022/09/20 09:36:13;;;;;;;3.45;1.20;;;;;;;13.85;68.69;99026.40;1669783;84;21037;-87
2022/09/20 09:38:45;;;;;;;2.05;1.10;;;;;;;13.88;68.13;99027.57;1676975;85;21030;-83
2022/09/20 09:41:25;;;;;;;3.70;1.10;;;;;;;13.97;67.47;99023.30;1676388;84;20997;-83
2022/09/20 09:44:08;;;;;;;1.77;1.12;;;;;;;13.90;67.76;99023.13;1671498;84;20993;-83
2022/09/20 09:46:39;;;;;;;2.00;1.20;;;;;;;13.87;67.10;99017.58;1668309;86;21062;-86
2022/09/20 09:49:22;;;;;;;3.65;1.25;;;;;;;13.86;66.03;99018.94;1673018;86;21042;-83
2022/09/20 09:52:04;;;;;;;3.90;1.42;;;;;;;13.91;65.95;99019.63;1672805;86;21115;-85
2022/09/20 09:54:37;;;;;;;2.10;1.20;;;;;;;14.03;66.13;99023.05;1672491;86;21022;-86
2022/09/20 09:57:19;;;;;;;3.20;1.45;;;;;;;14.04;66.65;99035.19;1672095;85;21042;-87
2022/09/20 09:59:53;;;;;;;3.25;1.60;;;;;;;14.01;66.00;99024.87;1667470;84;21085;-83
2022/09/20 10:02:45;;;;;;;2.92;1.52;;;;;;;14.09;66.95;99028.02;1670483;85;21034;-82
2022/09/20 10:05:29;;;;;;;3.02;1.35;;;;;;;14.08;66.85;99026.30;1666659;86;21026;-83
2022/09/20 10:08:37;;;;;;;3.47;1.70;;;;;;;14.09;66.41;99039.78;1666735;84;21010;-85
2022/09/20 10:11:32;;;;;;;1.27;1.10;;;;;;;13.95;67.09;99027.73;1660216;85;21535;-82
2022/09/20 10:14:24;;;;;;;3.17;1.60;;;;;;;14.03;67.15;99035.27;1636759;86;20928;-85
2022/09/20 10:17:26;;;;;;;2.90;1.80;;;;;;;14.01;67.16;99024.03;1637019;86;21117;-83
2022/09/20 10:20:32;;;;;;;3.92;1.52;;;;;;;13.97;66.96;99023.76;1655569;85;20937;-86
2022/09/20 10:23:40;;;;;;;2.47;1.50;;;;;;;13.88;67.09;99024.95;1644789;86;21039;-85
2022/09/20 10:26:31;;;;;;;4.40;1.47;;;;;;;13.90;67.11;99024.44;1661242;85;21128;-87
2022/09/20 10:29:25;;;;;;;2.10;1.40;;;;;;;13.80;67.20;99025.25;1621043;86;21068;-82
2022/09/20 10:32:13;;;;;;;6.58;1.52;;;;;;;13.93;66.80;99023.87;1642564;86;21002;-88
2022/09/20 10:35:24;;;;;;;4.42;1.67;;;;;;;14.06;66.44;99032.05;1639420;86;21600;-89
2022/09/20 10:38:18;;;;;;;3.60;1.70;;;;;;;14.23;66.24;99019.61;1643438;87;21022;-82
2022/09/20 10:44:17;;;;;;;2.45;1.40;;;;;;;14.57;64.40;99010.85;1643356;85;21504;-81
2022/09/20 10:47:07;;;;;;;3.00;1.32;;;;;;;14.57;64.43;99012.16;1642178;87;21027;-83
2022/09/20 10:49:56;;;;;;;2.52;1.60;;;;;;;14.75;64.02;99018.37;1647966;87;21510;-78
2022/09/20 10:52:35;;;;;;;6.15;1.50;;;;;;;14.81;63.61;99015.02;1643720;86;21033;-81
2022/09/20 10:55:33;;;;;;;3.58;1.27;;;;;;;14.73;64.08;99014.50;1634829;87;21063;-82
2022/09/20 10:58:26;;;;;;;2.85;1.40;;;;;;;14.88;63.10;99013.84;1646982;85;20986;-83
2022/09/20 11:01:08;;;;;;;3.98;1.30;;;;;;;14.70;62.00;99016.80;1646277;85;21030;-82
2022/09/20 11:04:14;;;;;;;1.67;1.22;;;;;;;14.76;62.12;99006.50;1666333;85;21575;-82
2022/09/20 11:07:04;;;;;;;3.37;1.35;;;;;;;14.74;62.51;99021.42;1668882;86;21573;-84
2022/09/20 11:09:37;;;;;;;3.70;1.70;;;;;;;14.75;62.94;99012.66;1668281;86;21018;-80
2022/09/20 11:12:28;;;;;;;2.90;1.37;;;;;;;14.69;62.32;99017.70;1669400;85;21012;-84
2022/09/20 11:15:21;;;;;;;2.17;1.15;;;;;;;14.66;63.05;99019.16;1664154;84;21013;-82
2022/09/20 11:18:06;;;;;;;2.40;1.20;;;;;;;14.89;62.23;99014.68;1670497;84;20998;-84
2022/09/20 11:20:45;;;;;;;4.33;1.40;;;;;;;15.06;62.07;99022.64;1666479;86;20998;-87
2022/09/20 11:23:20;;;;;;;3.40;1.47;;;;;;;15.31;61.59;99006.66;1667553;86;21017;-87
2022/09/20 11:26:01;;;;;;;4.72;1.27;;;;;;;15.59;61.42;99014.55;1661704;86;21048;-82
2022/09/20 11:28:34;;;;;;;3.15;1.00;;;;;;;15.83;61.34;99011.25;1658525;86;21050;-81
2022/09/20 11:31:22;;;;;;;2.30;1.15;;;;;;;15.83;60.71;99011.72;1664480;85;20996;-81
2022/09/20 11:34:01;;;;;;;4.45;1.17;;;;;;;15.77;60.72;99006.77;1670727;85;21029;-82
2022/09/20 11:36:56;;;;;;;1.57;0.78;;;;;;;15.54;60.61;99016.98;1673957;85;21493;-81
2022/09/20 11:39:47;;;;;;;1.82;1.00;;;;;;;15.35;60.16;99013.08;1671339;86;21003;-84
2022/09/20 11:42:28;;;;;;;1.22;1.10;;;;;;;15.12;60.88;99014.98;1662896;86;20952;-81
2022/09/20 11:44:56;;;;;;;1.80;1.10;;;;;;;15.01;61.28;99007.59;1668548;84;21097;-83
2022/09/20 11:47:32;;;;;;;1.37;1.10;;;;;;;14.90;60.39;99020.30;1676456;85;21502;-82
2022/09/20 11:50:43;;;;;;;1.52;1.00;;;;;;;15.03;60.86;99011.45;1665936;85;21006;-81
2022/09/20 11:53:44;;;;;;;1.20;1.00;;;;;;;14.97;60.14;99019.58;1659292;86;21142;-86
2022/09/20 11:56:27;;;;;;;1.87;1.07;;;;;;;14.97;59.81;99020.89;1662974;85;20938;-86
2022/09/20 11:58:59;;;;;;;1.52;1.02;;;;;;;15.03;59.93;99020.15;1627652;87;21574;-84
2022/09/20 12:01:34;;;;;;;2.05;1.05;;;;;;;15.11;61.18;99012.80;1641086;86;20998;-85
2022/09/20 12:04:25;;;;;;;1.95;1.00;;;;;;;15.11;61.26;99018.03;1677051;86;21025;-81
2022/09/20 12:07:19;;;;;;;1.82;1.32;;;;;;;15.09;60.64;99009.87;1647048;86;21016;-87
2022/09/20 12:09:57;;;;;;;1.87;1.30;;;;;;;14.98;60.68;99018.65;1627843;87;21051;-82
2022/09/20 12:12:42;;;;;;;1.17;0.95;;;;;;;14.80;61.05;99021.18;1619808;87;21066;-80
2022/09/20 12:15:31;;;;;;;4.25;1.60;;;;;;;14.77;61.52;99023.92;1665904;84;20978;-81
2022/09/20 12:18:14;;;;;;;1.92;1.17;;;;;;;14.59;62.39;99024.72;1663282;85;21044;-81
2022/09/20 12:20:48;;;;;;;1.37;1.00;;;;;;;14.43;63.12;99033.64;1677212;85;20986;-83
2022/09/20 12:23:45;;;;;;;2.33;1.10;;;;;;;14.24;61.75;99048.75;1664473;85;21101;-81
2022/09/20 12:26:35;;;;;;;7.10;2.80;;;;;;;14.16;61.60;99036.92;1666690;85;21067;-82
2022/09/20 12:29:30;;;;;;;1.42;0.90;;;;;;;14.15;62.60;99043.08;1672356;84;21090;-85
2022/09/20 12:32:00;;;;;;;;;;;;;;;14.17;62.01;99043.41;1663246;85;20992;-84
2022/09/20 12:34:35;;;;;;;1.27;0.95;;;;;;;14.20;62.35;99046.34;1627738;86;20120;-84
2022/09/20 12:37:09;;;;;;;10.53;6.35;;;;;;;14.29;62.70;99044.20;1639790;86;21054;-82
2022/09/20 12:39:38;;;;;;;177.80;62.45;;;;;;;14.29;62.11;99044.67;1672831;84;21015;-88
2022/09/20 12:42:14;;;;;;;48.68;23.02;;;;;;;14.27;63.35;99042.11;1676971;84;21482;-80
2022/09/20 12:44:50;;;;;;;13.68;6.80;;;;;;;14.38;64.24;99044.73;1674387;84;20966;-81
2022/09/20 12:47:25;;;;;;;3.50;2.02;;;;;;;14.52;64.73;99037.16;1642511;87;21529;-82
2022/09/20 12:52:52;;;;;;;2.27;1.30;;;;;;;14.73;65.16;99038.05;1669580;84;21065;-84
2022/09/20 12:55:51;;;;;;;5.65;1.50;;;;;;;14.92;65.20;99035.47;1658265;85;20937;-83
2022/09/20 12:58:52;;;;;;;1.70;0.85;;;;;;;14.99;63.84;99043.45;1637355;86;21039;-74
2022/09/20 13:01:25;;;;;;;1.52;1.00;;;;;;;15.08;62.59;99025.17;1671662;84;21038;-82
2022/09/20 13:03:54;;;;;;;2.08;1.20;;;;;;;15.00;62.52;99029.90;1670582;84;21018;-83
2022/09/20 13:06:24;;;;;;;4.17;1.17;;;;;;;15.05;62.06;99031.88;1674800;84;20962;-83
2022/09/20 13:09:04;;;;;;;2.25;1.20;;;;;;;15.10;62.13;99025.52;1672492;84;20990;-84
2022/09/20 13:11:54;;;;;;;2.80;1.52;;;;;;;15.02;61.52;99025.45;1669012;84;21002;-83